Badger Spring Valley, Nevada Weather observations

Data are for 10 minute period ending at time listed.
 Day   Time   Solar   Ave.   Ave.  Ave.  Vector  Max.   Baro.   Total    
  of    of     Rad.   Air    Rel.  Wind   Wind   Wind  Press.  Precip.   
Year   Day            Temp.  Hum.  Speed  Dir.   Gust                    
2016   (PST)  Kw/m2    F      %     mph   deg.    mph    mb.     in.     
-------------------------------------------------------------------------
 274    0:00   0.00   61.4    49    4.3   261     6.6   835.5    0.00 
 274    0:10   0.00   61.4    50    4.5   262     6.6   835.5    0.00 
 274    0:20   0.00   61.6    50    3.8   263     5.8   835.5    0.00 
 274    0:30   0.00   61.4    50    3.9   265     6.1   835.5    0.00 
 274    0:40   0.00   61.3    50    5.1   273     7.1   835.5    0.00 
 274    0:50   0.00   61.4    50    5.4   277     7.4   835.5    0.00 
 274    1:00   0.00   61.2    51    5.0   280     7.2   835.6    0.00 
 274    1:10   0.00   60.8    52    4.0   277     6.8   835.6    0.00 
 274    1:20   0.00   60.3    52    4.7   277     6.5   835.7    0.00 
 274    1:30   0.00   59.2    54    4.4   278     5.9   835.6    0.00 
 274    1:40   0.00   59.1    55    3.5   276     5.8   835.6    0.00 
 274    1:50   0.00   58.8    56    2.7   258     4.4   835.6    0.00 
 274    2:00   0.00   59.5    56    2.9   258     5.3   835.6    0.00 
 274    2:10   0.00   59.7    55    3.2   259     4.8   835.6    0.00 
 274    2:20   0.00   60.2    56    3.1   252     5.2   835.5    0.00 
 274    2:30   0.00   59.9    56    3.7   268     5.3   835.5    0.00 
 274    2:40   0.00   59.4    58    4.1   270     5.6   835.5    0.00 
 274    2:50   0.00   58.6    60    5.4   276     7.5   835.5    0.00 
 274    3:00   0.00   58.6    60    5.6   277     7.7   835.5    0.00 
 274    3:10   0.00   58.3    61    6.5   281     8.2   835.5    0.00 
 274    3:20   0.00   58.2    62    5.6   279     8.0   835.6    0.00 
 274    3:30   0.00   58.7    61    4.4   279     6.6   835.5    0.00 
 274    3:40   0.00   58.2    62    3.9   266     7.3   835.6    0.00 
 274    3:50   0.00   58.8    62    4.3   268     6.6   835.6    0.00 
 274    4:00   0.00   58.9    62    4.3   267     6.0   835.6    0.00 
 274    4:10   0.00   58.5    63    4.5   274     6.4   835.6    0.00 
 274    4:20   0.00   57.8    64    5.1   274     6.9   835.6    0.00 
 274    4:30   0.00   58.0    65    4.3   270     6.6   835.6    0.00 
 274    4:40   0.00   58.0    65    5.2   266     6.9   835.7    0.00 
 274    4:50   0.00   58.5    64    5.2   263     6.8   835.7    0.00 
 274    5:00   0.00   58.1    65    5.9   266     8.3   835.7    0.00 
 274    5:10   0.00   58.4    65    5.7   267     7.7   835.8    0.00 
 274    5:20   0.00   58.2    65    5.9   270     7.5   835.8    0.00 
 274    5:30   0.00   58.4    65    6.5   269     8.4   835.8    0.00 
 274    5:40   0.00   58.2    65    6.2   277     8.5   835.9    0.00 
 274    5:50   0.01   58.2    66    5.1   280     7.4   835.9    0.00 
 274    6:00   0.01   58.1    66    5.3   280     7.9   836.0    0.00 
 274    6:10   0.01   58.0    66    4.8   278     7.1   836.0    0.00 
 274    6:20   0.02   57.3    68    4.2   274     6.6   836.1    0.00 
 274    6:30   0.09   58.7    66    2.9   260     5.5   836.1    0.00 
 274    6:40   0.14   60.4    62    2.9   266     5.7   836.1    0.00 
 274    6:50   0.19   62.8    58    2.4   245     3.8   836.2    0.00 
 274    7:00   0.22   64.0    56    2.1   215     4.9   836.3    0.00 
 274    7:10   0.26   64.9    54    2.5   197     6.5   836.4    0.00 
 274    7:20   0.30   65.2    54    3.3   162     6.9   836.5    0.00 
 274    7:30   0.34   65.7    53    3.9   150     6.6   836.6    0.00 
 274    7:40   0.37   65.9    52    5.1   141     9.3   836.7    0.00 
 274    7:50   0.41   66.2    52    6.1   163     9.1   836.8    0.00 
 274    8:00   0.45   66.5    51    6.3   159    11.0   836.9    0.00 
 274    8:10   0.48   67.5    49    6.9   144    11.2   837.0    0.00 
 274    8:20   0.51   67.5    49    7.1   152    11.0   837.0    0.00 
 274    8:30   0.55   67.6    48    7.7   132    11.4   837.0    0.00 
 274    8:40   0.58   68.2    47    6.7   143    10.7   837.0    0.00 
 274    8:50   0.61   68.8    46    6.9   140    12.5   837.0    0.00 
 274    9:00   0.64   68.9    45    7.1   130    11.8   837.1    0.00 
 274    9:10   0.67   69.3    45    7.2   151    12.1   837.0    0.00 
 274    9:20   0.69   69.8    43    7.5   148    11.7   837.0    0.00 
 274    9:30   0.72   69.8    43    7.0   136    10.4   836.9    0.00 
 274    9:40   0.74   69.7    42    7.0   133    12.1   837.0    0.00 
 274    9:50   0.76   71.0    40    7.4   124    11.0   836.9    0.00 
 274   10:00   0.78   71.4    40    7.1   138    11.7   836.8    0.00 
 274   10:10   0.80   71.5    39    7.2   138    12.3   836.7    0.00 
 274   10:20   0.82   72.5    36    8.3   138    14.0   836.7    0.00 
 274   10:30   0.84   72.4    36    7.5   149    17.3   836.5    0.00 
 274   10:40   0.85   72.7    36    8.6   164    14.7   836.5    0.00 
 274   10:50   0.88   72.8    35    8.6   140    14.0   836.4    0.00 
 274   11:00   0.90   73.5    34    7.8   135    15.4   836.2    0.00 
 274   11:10   0.96   74.0    33   10.4   134    18.1   836.1    0.00 
 274   11:20   0.53   74.2    31   10.5   153    19.3   835.9    0.00 
 274   11:30   0.20   72.0    34    6.9   162    13.8   835.8    0.00 
 274   11:40   0.37   72.2    32   12.2   168    20.1   835.6    0.00 
 274   11:50   0.66   73.4    30    9.4   178    17.5   835.6    0.00 
 274   12:00   0.40   73.0    31    9.3   157    16.7   835.5    0.00 
 274   12:10   0.53   73.4    30    8.2   148    15.6   835.4    0.00 
 274   12:20   1.04   76.1    26    7.4   175    14.2   835.2    0.00 
 274   12:30   0.90   75.9    27   10.0   135    19.7   834.9    0.00 
 274   12:40   0.91   76.9    22   12.0   176    18.3   834.8    0.00 
 274   12:50   0.89   76.6    22    9.1   177    17.9   834.6    0.00 
 274   13:00   0.64   76.7    22    9.6   170    17.0   834.4    0.00 
 274   13:10   0.60   74.7    25    5.7   172    18.9   834.3    0.00 
 274   13:20   0.86   76.9    22   13.4   158    20.3   834.1    0.00 
 274   13:30   0.81   77.2    23   10.6   191    19.6   834.1    0.00 
 274   13:40   0.78   76.8    24    9.1   195    16.7   834.1    0.00 
 274   13:50   0.32   76.1    24    6.2   184    10.9   834.0    0.00 
 274   14:00   0.45   75.3    24    6.0   183    14.1   833.9    0.00 
 274   14:10   0.24   74.2    24    7.8   183    17.5   833.9    0.00 
 274   14:20   0.28   74.4    23    8.0   182    12.3   833.8    0.00 
 274   14:30   0.21   74.8    22    8.5   158    13.5   833.7    0.00 
 274   14:40   0.40   75.0    25    7.9   156    22.0   833.6    0.00 
 274   14:50   0.15   74.8    24    6.9   172    12.4   833.6    0.00 
 274   15:00   0.30   73.9    26   10.4   140    17.2   833.5    0.00 
 274   15:10   0.38   75.1    26    7.1   134    16.7   833.5    0.00 
 274   15:20   0.43   74.3    29   11.1   136    16.0   833.5    0.00 
 274   15:30   0.28   74.1    30    9.5   132    13.5   833.4    0.00 
 274   15:40   0.44   74.9    29   10.4   126    13.7   833.3    0.00 
 274   15:50   0.39   75.4    29    9.7   124    17.4   833.2    0.00 
 274   16:00   0.30   74.8    29   10.3   148    16.5   833.1    0.00 
 274   16:10   0.10   73.5    31   12.7   129    21.7   833.1    0.00 
 274   16:20   0.08   72.5    32   11.9   139    18.1   833.1    0.00 
 274   16:30   0.08   71.9    33   10.7   134    16.2   833.1    0.00 
 274   16:40   0.10   71.8    33   12.1   135    20.4   833.0    0.00 
 274   16:50   0.06   71.2    34   12.1   134    15.5   832.9    0.00 
 274   17:00   0.04   70.8    35   10.1   137    14.8   832.9    0.00 
 274   17:10   0.02   70.1    35    8.8   142    13.7   832.9    0.00 
 274   17:20   0.01   69.5    36    6.7   147    10.8   832.9    0.00 
 274   17:30   0.01   69.1    36    7.4   145    10.1   832.7    0.00 
 274   17:40   0.00   68.5    37    5.3   151     8.9   832.7    0.00 
 274   17:50   0.00   67.7    39    4.0   160     5.9   832.7    0.00 
 274   18:00   0.00   67.0    40    4.5   157     8.1   832.6    0.00 
 274   18:10   0.00   66.7    40    3.9   155     6.7   832.6    0.00 
 274   18:20   0.00   66.1    41    2.4   191     4.4   832.5    0.00 
 274   18:30   0.00   65.8    41    3.3   224     5.3   832.4    0.00 
 274   18:40   0.00   65.9    41    4.6   227     6.7   832.4    0.00 
 274   18:50   0.00   66.2    40    4.1   222     6.3   832.4    0.00 
 274   19:00   0.00   66.0    40    4.3   225     5.6   832.4    0.00 
 274   19:10   0.00   65.9    40    3.7   225     5.8   832.5    0.00 
 274   19:20   0.00   65.5    40    2.7   211     4.3   832.5    0.00 
 274   19:30   0.00   64.8    40    2.3   217     4.5   832.5    0.00 
 274   19:40   0.00   64.5    40    3.2   243     5.7   832.5    0.00 
 274   19:50   0.00   64.5    40    3.4   249     5.5   832.5    0.00 
 274   20:00   0.00   64.6    40    3.4   247     6.1   832.5    0.00 
 274   20:10   0.00   64.8    40    2.3   245     3.4   832.5    0.00 
 274   20:20   0.00   64.8    40    2.7   226     4.7   832.5    0.00 
 274   20:30   0.00   64.9    40    3.0   247     4.8   832.5    0.00 
 274   20:40   0.00   64.5    41    3.7   249     5.4   832.5    0.00 
 274   20:50   0.00   65.1    41    4.3   244     6.0   832.5    0.00 
 274   21:00   0.00   64.9    41    3.7   241     5.8   832.5    0.00 
 274   21:10   0.00   64.7    41    2.2   230     4.4   832.5    0.00 
 274   21:20   0.00   64.0    42    3.0   254     5.3   832.5    0.00 
 274   21:30   0.00   62.9    43    3.9   268     5.8   832.6    0.00 
 274   21:40   0.00   62.4    44    4.0   277     6.3   832.5    0.00 
 274   21:50   0.00   62.6    44    5.0   271     6.0   832.5    0.00 
 274   22:00   0.00   62.4    44    5.3   276     6.8   832.5    0.00 
 274   22:10   0.00   61.7    44    3.2   269     5.3   832.5    0.00 

Return to Badger Spring Valley graphs page.


Western Regional Climate Center,wrcc@dri.edu